sensor_id;sensor_type;location;lat;lon;timestamp;pressure;altitude;pressure_sealevel;temperature;humidity
38612;BME280;24368;52.156;20.788;2023-03-22T00:04:09;100427.05;;;3.77;100.00
38612;BME280;24368;52.156;20.788;2023-03-22T00:09:11;100422.98;;;3.76;100.00
38612;BME280;24368;52.156;20.788;2023-03-22T00:14:12;100419.66;;;3.68;100.00
38612;BME280;24368;52.156;20.788;2023-03-22T00:19:14;100416.54;;;3.74;100.00
38612;BME280;24368;52.156;20.788;2023-03-22T00:24:17;100407.45;;;3.76;100.00
38612;BME280;24368;52.156;20.788;2023-03-22T00:29:21;100404.14;;;3.69;100.00
38612;BME280;24368;52.156;20.788;2023-03-22T00:34:24;100404.54;;;3.63;100.00
38612;BME280;24368;52.156;20.788;2023-03-22T00:39:27;100400.73;;;3.57;100.00
38612;BME280;24368;52.156;20.788;2023-03-22T00:44:29;100401.96;;;3.58;100.00
38612;BME280;24368;52.156;20.788;2023-03-22T00:49:31;100398.12;;;3.58;100.00
38612;BME280;24368;52.156;20.788;2023-03-22T00:54:33;100394.31;;;3.62;100.00
38612;BME280;24368;52.156;20.788;2023-03-22T00:59:34;100387.52;;;3.64;100.00
38612;BME280;24368;52.156;20.788;2023-03-22T01:04:40;100384.76;;;3.62;100.00
38612;BME280;24368;52.156;20.788;2023-03-22T01:09:50;100376.13;;;3.58;100.00
38612;BME280;24368;52.156;20.788;2023-03-22T01:14:51;100377.73;;;3.53;100.00
38612;BME280;24368;52.156;20.788;2023-03-22T01:19:53;100375.31;;;3.45;100.00
38612;BME280;24368;52.156;20.788;2023-03-22T01:24:55;100375.80;;;3.41;100.00
38612;BME280;24368;52.156;20.788;2023-03-22T01:29:57;100374.69;;;3.49;100.00
38612;BME280;24368;52.156;20.788;2023-03-22T01:34:59;100370.84;;;3.52;100.00
38612;BME280;24368;52.156;20.788;2023-03-22T01:40:01;100363.77;;;3.51;100.00
38612;BME280;24368;52.156;20.788;2023-03-22T01:50:15;100357.55;;;3.50;100.00
38612;BME280;24368;52.156;20.788;2023-03-22T01:55:18;100349.46;;;3.51;100.00
38612;BME280;24368;52.156;20.788;2023-03-22T02:00:23;100345.61;;;3.54;100.00
38612;BME280;24368;52.156;20.788;2023-03-22T02:05:25;100343.14;;;3.52;100.00
38612;BME280;24368;52.156;20.788;2023-03-22T02:10:27;100339.08;;;3.55;100.00
38612;BME280;24368;52.156;20.788;2023-03-22T02:43:20;100318.47;;;3.41;100.00
38612;BME280;24368;52.156;20.788;2023-03-22T02:48:30;100314.63;;;3.49;100.00
38612;BME280;24368;52.156;20.788;2023-03-22T02:53:41;100308.55;;;3.44;100.00
38612;BME280;24368;52.156;20.788;2023-03-22T02:58:52;100306.55;;;3.37;100.00
38612;BME280;24368;52.156;20.788;2023-03-22T03:04:03;100296.96;;;3.38;100.00
38612;BME280;24368;52.156;20.788;2023-03-22T03:09:07;100297.61;;;3.26;100.00
38612;BME280;24368;52.156;20.788;2023-03-22T03:19:32;100299.73;;;3.06;100.00
38612;BME280;24368;52.156;20.788;2023-03-22T03:30:13;100287.38;;;3.01;100.00
38612;BME280;24368;52.156;20.788;2023-03-22T03:35:23;100288.77;;;3.03;100.00
38612;BME280;24368;52.156;20.788;2023-03-22T03:40:32;100281.20;;;3.02;100.00
38612;BME280;24368;52.156;20.788;2023-03-22T03:45:36;100280.86;;;3.02;100.00
38612;BME280;24368;52.156;20.788;2023-03-22T03:50:39;100285.56;;;2.92;100.00
38612;BME280;24368;52.156;20.788;2023-03-22T03:55:41;100286.75;;;2.87;100.00
38612;BME280;24368;52.156;20.788;2023-03-22T04:00:44;100285.10;;;2.91;100.00
38612;BME280;24368;52.156;20.788;2023-03-22T04:05:46;100286.36;;;2.83;100.00
38612;BME280;24368;52.156;20.788;2023-03-22T04:10:50;100285.19;;;2.77;100.00
38612;BME280;24368;52.156;20.788;2023-03-22T04:15:54;100286.58;;;2.75;100.00
38612;BME280;24368;52.156;20.788;2023-03-22T04:20:58;100289.68;;;2.67;100.00
38612;BME280;24368;52.156;20.788;2023-03-22T04:26:00;100293.70;;;2.60;100.00
38612;BME280;24368;52.156;20.788;2023-03-22T04:31:02;100292.75;;;2.55;100.00
38612;BME280;24368;52.156;20.788;2023-03-22T04:36:06;100290.65;;;2.56;100.00
38612;BME280;24368;52.156;20.788;2023-03-22T04:41:10;100294.15;;;2.55;100.00
38612;BME280;24368;52.156;20.788;2023-03-22T04:46:12;100291.90;;;2.55;100.00
38612;BME280;24368;52.156;20.788;2023-03-22T04:51:14;100286.48;;;2.58;100.00
38612;BME280;24368;52.156;20.788;2023-03-22T04:56:16;100282.63;;;2.63;100.00
38612;BME280;24368;52.156;20.788;2023-03-22T05:01:18;100281.00;;;2.64;100.00
38612;BME280;24368;52.156;20.788;2023-03-22T05:06:21;100285.55;;;2.57;100.00
38612;BME280;24368;52.156;20.788;2023-03-22T05:11:23;100294.34;;;2.60;100.00
38612;BME280;24368;52.156;20.788;2023-03-22T05:16:28;100290.77;;;2.66;100.00
38612;BME280;24368;52.156;20.788;2023-03-22T05:21:30;100293.11;;;2.68;100.00
38612;BME280;24368;52.156;20.788;2023-03-22T05:26:37;100287.83;;;2.79;100.00
38612;BME280;24368;52.156;20.788;2023-03-22T05:31:42;100287.68;;;2.89;100.00
38612;BME280;24368;52.156;20.788;2023-03-22T05:36:44;100293.62;;;2.94;100.00
38612;BME280;24368;52.156;20.788;2023-03-22T05:41:46;100294.20;;;3.03;100.00
38612;BME280;24368;52.156;20.788;2023-03-22T05:46:48;100293.77;;;3.14;100.00
38612;BME280;24368;52.156;20.788;2023-03-22T05:51:50;100289.78;;;3.29;100.00
38612;BME280;24368;52.156;20.788;2023-03-22T05:56:52;100295.87;;;3.38;100.00
38612;BME280;24368;52.156;20.788;2023-03-22T06:01:54;100295.16;;;3.55;100.00
38612;BME280;24368;52.156;20.788;2023-03-22T06:06:55;100298.86;;;3.81;100.00
38612;BME280;24368;52.156;20.788;2023-03-22T06:11:58;100296.59;;;4.05;100.00
38612;BME280;24368;52.156;20.788;2023-03-22T06:17:00;100299.04;;;4.19;100.00
38612;BME280;24368;52.156;20.788;2023-03-22T06:22:02;100293.23;;;4.27;100.00
38612;BME280;24368;52.156;20.788;2023-03-22T06:27:04;100298.77;;;4.37;100.00
38612;BME280;24368;52.156;20.788;2023-03-22T06:32:06;100298.33;;;4.49;100.00
38612;BME280;24368;52.156;20.788;2023-03-22T06:37:07;100296.27;;;4.58;100.00
38612;BME280;24368;52.156;20.788;2023-03-22T06:42:10;100292.44;;;4.67;100.00
38612;BME280;24368;52.156;20.788;2023-03-22T06:47:11;100289.54;;;4.78;100.00
38612;BME280;24368;52.156;20.788;2023-03-22T06:52:13;100283.56;;;4.89;100.00
38612;BME280;24368;52.156;20.788;2023-03-22T06:57:15;100283.39;;;4.98;100.00
38612;BME280;24368;52.156;20.788;2023-03-22T07:02:17;100279.48;;;5.05;100.00
38612;BME280;24368;52.156;20.788;2023-03-22T07:07:19;100279.52;;;5.16;100.00
38612;BME280;24368;52.156;20.788;2023-03-22T07:12:21;100274.08;;;5.34;100.00
38612;BME280;24368;52.156;20.788;2023-03-22T07:17:23;100271.76;;;5.52;100.00
38612;BME280;24368;52.156;20.788;2023-03-22T07:22:24;100267.61;;;5.71;100.00
38612;BME280;24368;52.156;20.788;2023-03-22T07:27:27;100266.88;;;5.93;100.00
38612;BME280;24368;52.156;20.788;2023-03-22T07:32:30;100267.27;;;6.20;100.00
38612;BME280;24368;52.156;20.788;2023-03-22T07:37:32;100265.02;;;6.61;100.00
38612;BME280;24368;52.156;20.788;2023-03-22T07:42:34;100260.39;;;6.91;100.00
38612;BME280;24368;52.156;20.788;2023-03-22T07:47:35;100254.56;;;7.13;100.00
38612;BME280;24368;52.156;20.788;2023-03-22T07:52:40;100252.58;;;7.28;100.00
38612;BME280;24368;52.156;20.788;2023-03-22T07:57:42;100252.96;;;7.41;100.00
38612;BME280;24368;52.156;20.788;2023-03-22T08:02:44;100243.70;;;7.59;100.00
38612;BME280;24368;52.156;20.788;2023-03-22T08:07:47;100238.60;;;7.73;100.00
38612;BME280;24368;52.156;20.788;2023-03-22T08:12:50;100237.35;;;7.87;100.00
38612;BME280;24368;52.156;20.788;2023-03-22T08:17:52;100236.85;;;7.92;100.00
38612;BME280;24368;52.156;20.788;2023-03-22T08:22:58;100222.71;;;8.07;100.00
38612;BME280;24368;52.156;20.788;2023-03-22T08:28:00;100219.36;;;8.20;100.00
38612;BME280;24368;52.156;20.788;2023-03-22T08:33:02;100223.77;;;8.14;100.00
38612;BME280;24368;52.156;20.788;2023-03-22T08:38:04;100225.08;;;8.13;100.00
38612;BME280;24368;52.156;20.788;2023-03-22T08:43:07;100230.16;;;8.09;100.00
38612;BME280;24368;52.156;20.788;2023-03-22T08:48:08;100231.42;;;8.11;100.00
38612;BME280;24368;52.156;20.788;2023-03-22T08:53:10;100231.20;;;8.15;100.00
38612;BME280;24368;52.156;20.788;2023-03-22T08:58:15;100239.04;;;8.14;100.00
38612;BME280;24368;52.156;20.788;2023-03-22T09:03:19;100231.73;;;8.11;100.00
38612;BME280;24368;52.156;20.788;2023-03-22T09:08:21;100231.81;;;8.10;100.00
38612;BME280;24368;52.156;20.788;2023-03-22T09:13:23;100227.64;;;8.18;100.00
38612;BME280;24368;52.156;20.788;2023-03-22T09:18:24;100218.02;;;8.25;100.00
38612;BME280;24368;52.156;20.788;2023-03-22T09:23:26;100204.38;;;8.34;100.00
38612;BME280;24368;52.156;20.788;2023-03-22T09:28:30;100197.33;;;8.28;100.00
38612;BME280;24368;52.156;20.788;2023-03-22T09:33:33;100188.70;;;8.27;100.00
38612;BME280;24368;52.156;20.788;2023-03-22T09:38:35;100182.52;;;8.39;100.00
38612;BME280;24368;52.156;20.788;2023-03-22T09:43:41;100181.61;;;8.60;100.00
38612;BME280;24368;52.156;20.788;2023-03-22T09:48:46;100180.30;;;8.77;100.00
38612;BME280;24368;52.156;20.788;2023-03-22T09:53:48;100174.00;;;8.90;100.00
38612;BME280;24368;52.156;20.788;2023-03-22T10:09:17;100181.84;;;8.87;100.00
38612;BME280;24368;52.156;20.788;2023-03-22T10:14:43;100180.44;;;8.85;100.00
38612;BME280;24368;52.156;20.788;2023-03-22T10:19:51;100183.05;;;8.98;100.00
38612;BME280;24368;52.156;20.788;2023-03-22T10:24:56;100176.65;;;9.19;100.00
38612;BME280;24368;52.156;20.788;2023-03-22T10:30:03;100179.09;;;9.27;100.00
38612;BME280;24368;52.156;20.788;2023-03-22T10:35:13;100176.09;;;9.31;100.00
38612;BME280;24368;52.156;20.788;2023-03-22T10:40:23;100172.73;;;9.31;100.00
38612;BME280;24368;52.156;20.788;2023-03-22T10:45:26;100167.79;;;9.37;100.00
38612;BME280;24368;52.156;20.788;2023-03-22T10:50:31;100168.82;;;9.48;100.00
38612;BME280;24368;52.156;20.788;2023-03-22T10:55:38;100159.83;;;9.53;100.00
38612;BME280;24368;52.156;20.788;2023-03-22T11:00:52;100155.55;;;9.63;100.00
38612;BME280;24368;52.156;20.788;2023-03-22T11:11:05;100146.48;;;9.89;100.00
38612;BME280;24368;52.156;20.788;2023-03-22T11:16:08;100139.05;;;9.92;100.00
38612;BME280;24368;52.156;20.788;2023-03-22T11:21:11;100139.21;;;9.92;100.00
38612;BME280;24368;52.156;20.788;2023-03-22T11:26:13;100141.28;;;9.91;100.00
38612;BME280;24368;52.156;20.788;2023-03-22T11:31:18;100142.48;;;9.92;100.00
38612;BME280;24368;52.156;20.788;2023-03-22T11:36:20;100134.08;;;10.05;100.00
38612;BME280;24368;52.156;20.788;2023-03-22T11:41:24;100121.50;;;10.20;100.00
38612;BME280;24368;52.156;20.788;2023-03-22T11:46:27;100123.18;;;10.36;100.00
38612;BME280;24368;52.156;20.788;2023-03-22T11:51:34;100115.81;;;10.43;100.00
38612;BME280;24368;52.156;20.788;2023-03-22T11:56:43;100107.59;;;10.51;100.00
38612;BME280;24368;52.156;20.788;2023-03-22T12:07:15;100095.41;;;11.34;99.98
38612;BME280;24368;52.156;20.788;2023-03-22T12:12:27;100089.70;;;11.56;98.16
38612;BME280;24368;52.156;20.788;2023-03-22T12:17:38;100084.56;;;11.15;99.31
38612;BME280;24368;52.156;20.788;2023-03-22T12:22:47;100079.44;;;11.15;98.64
38612;BME280;24368;52.156;20.788;2023-03-22T12:27:57;100072.88;;;11.12;97.50
38612;BME280;24368;52.156;20.788;2023-03-22T12:33:13;100063.78;;;11.26;96.83
38612;BME280;24368;52.156;20.788;2023-03-22T12:38:40;100057.05;;;11.51;96.43
38612;BME280;24368;52.156;20.788;2023-03-22T12:43:51;100044.41;;;11.68;96.32
38612;BME280;24368;52.156;20.788;2023-03-22T12:54:23;100046.02;;;11.82;94.74
38612;BME280;24368;52.156;20.788;2023-03-22T12:59:28;100051.05;;;11.62;96.50
38612;BME280;24368;52.156;20.788;2023-03-22T13:35:45;100016.77;;;13.56;84.40
38612;BME280;24368;52.156;20.788;2023-03-22T13:41:00;100011.33;;;13.14;87.35
38612;BME280;24368;52.156;20.788;2023-03-22T14:01:51;99999.54;;;13.79;82.46
38612;BME280;24368;52.156;20.788;2023-03-22T14:06:57;99996.08;;;13.00;88.39
38612;BME280;24368;52.156;20.788;2023-03-22T14:12:10;99994.86;;;12.82;90.06
38612;BME280;24368;52.156;20.788;2023-03-22T14:22:35;99995.14;;;12.32;92.14
38612;BME280;24368;52.156;20.788;2023-03-22T14:27:39;99989.84;;;12.21;93.22
38612;BME280;24368;52.156;20.788;2023-03-22T14:32:42;99977.10;;;12.19;93.52
38612;BME280;24368;52.156;20.788;2023-03-22T14:37:46;99967.13;;;12.31;93.33
38612;BME280;24368;52.156;20.788;2023-03-22T14:42:48;99964.11;;;12.42;92.77
38612;BME280;24368;52.156;20.788;2023-03-22T14:47:52;99957.83;;;12.60;90.68
38612;BME280;24368;52.156;20.788;2023-03-22T14:52:54;99948.09;;;12.58;90.32
38612;BME280;24368;52.156;20.788;2023-03-22T14:57:58;99942.56;;;12.49;90.63
38612;BME280;24368;52.156;20.788;2023-03-22T15:03:04;99938.40;;;12.43;91.41
38612;BME280;24368;52.156;20.788;2023-03-22T15:08:11;99934.28;;;12.34;93.19
38612;BME280;24368;52.156;20.788;2023-03-22T15:13:14;99932.60;;;12.22;93.74
38612;BME280;24368;52.156;20.788;2023-03-22T15:18:18;99926.88;;;12.20;94.05
38612;BME280;24368;52.156;20.788;2023-03-22T15:23:34;99925.02;;;12.18;94.74
38612;BME280;24368;52.156;20.788;2023-03-22T15:28:43;99922.15;;;12.19;95.20
38612;BME280;24368;52.156;20.788;2023-03-22T15:33:50;99927.77;;;12.15;95.69
38612;BME280;24368;52.156;20.788;2023-03-22T15:38:52;99920.30;;;12.08;96.29
38612;BME280;24368;52.156;20.788;2023-03-22T15:44:26;99913.69;;;12.01;96.38
38612;BME280;24368;52.156;20.788;2023-03-22T15:54:34;99910.50;;;11.90;97.56
38612;BME280;24368;52.156;20.788;2023-03-22T16:00:00;99915.15;;;11.85;97.80
38612;BME280;24368;52.156;20.788;2023-03-22T16:05:09;99908.57;;;11.79;98.16
38612;BME280;24368;52.156;20.788;2023-03-22T16:10:19;99903.77;;;11.71;98.83
38612;BME280;24368;52.156;20.788;2023-03-22T16:15:28;99897.27;;;11.66;99.49
38612;BME280;24368;52.156;20.788;2023-03-22T16:20:31;99891.13;;;11.66;99.99
38612;BME280;24368;52.156;20.788;2023-03-22T16:25:34;99884.30;;;11.65;99.87
38612;BME280;24368;52.156;20.788;2023-03-22T16:30:40;99886.95;;;11.61;99.67
38612;BME280;24368;52.156;20.788;2023-03-22T16:35:43;99893.79;;;11.53;99.96
38612;BME280;24368;52.156;20.788;2023-03-22T16:40:48;99892.88;;;11.41;100.00
38612;BME280;24368;52.156;20.788;2023-03-22T16:45:51;99887.48;;;11.29;100.00
38612;BME280;24368;52.156;20.788;2023-03-22T16:50:53;99887.84;;;11.19;100.00
38612;BME280;24368;52.156;20.788;2023-03-22T16:55:55;99887.84;;;11.10;100.00
38612;BME280;24368;52.156;20.788;2023-03-22T17:00:57;99883.02;;;11.04;100.00
38612;BME280;24368;52.156;20.788;2023-03-22T17:05:58;99887.62;;;10.99;100.00
38612;BME280;24368;52.156;20.788;2023-03-22T17:11:00;99895.48;;;10.96;100.00
38612;BME280;24368;52.156;20.788;2023-03-22T17:16:02;99901.52;;;10.94;100.00
38612;BME280;24368;52.156;20.788;2023-03-22T17:21:04;99902.50;;;10.96;100.00
38612;BME280;24368;52.156;20.788;2023-03-22T17:26:07;99904.77;;;10.98;100.00
38612;BME280;24368;52.156;20.788;2023-03-22T17:31:13;99901.88;;;10.96;100.00
38612;BME280;24368;52.156;20.788;2023-03-22T17:36:15;99904.39;;;10.92;100.00
38612;BME280;24368;52.156;20.788;2023-03-22T17:41:18;99910.71;;;10.89;100.00
38612;BME280;24368;52.156;20.788;2023-03-22T17:46:19;99906.88;;;10.84;100.00
38612;BME280;24368;52.156;20.788;2023-03-22T17:51:21;99898.29;;;10.79;100.00
38612;BME280;24368;52.156;20.788;2023-03-22T17:56:23;99901.89;;;10.81;100.00
38612;BME280;24368;52.156;20.788;2023-03-22T18:01:25;99904.77;;;10.81;100.00
38612;BME280;24368;52.156;20.788;2023-03-22T18:06:27;99909.27;;;10.78;100.00
38612;BME280;24368;52.156;20.788;2023-03-22T18:11:30;99903.91;;;10.79;100.00
38612;BME280;24368;52.156;20.788;2023-03-22T18:16:32;99903.41;;;10.77;100.00
38612;BME280;24368;52.156;20.788;2023-03-22T18:21:34;99903.02;;;10.71;100.00
38612;BME280;24368;52.156;20.788;2023-03-22T18:26:36;99906.48;;;10.65;100.00
38612;BME280;24368;52.156;20.788;2023-03-22T18:31:37;99906.41;;;10.61;100.00
38612;BME280;24368;52.156;20.788;2023-03-22T18:36:39;99904.52;;;10.57;100.00
38612;BME280;24368;52.156;20.788;2023-03-22T18:41:45;99899.71;;;10.58;100.00
38612;BME280;24368;52.156;20.788;2023-03-22T18:46:49;99903.23;;;10.52;100.00
38612;BME280;24368;52.156;20.788;2023-03-22T18:51:52;99895.98;;;10.48;100.00
38612;BME280;24368;52.156;20.788;2023-03-22T18:56:54;99899.21;;;10.42;100.00
38612;BME280;24368;52.156;20.788;2023-03-22T19:01:59;99896.14;;;10.38;100.00
38612;BME280;24368;52.156;20.788;2023-03-22T19:07:01;99898.64;;;10.35;100.00
38612;BME280;24368;52.156;20.788;2023-03-22T19:12:03;99892.57;;;10.32;100.00
38612;BME280;24368;52.156;20.788;2023-03-22T19:17:07;99882.73;;;10.30;100.00
38612;BME280;24368;52.156;20.788;2023-03-22T19:22:09;99880.90;;;10.27;100.00
38612;BME280;24368;52.156;20.788;2023-03-22T19:27:12;99874.65;;;10.20;100.00
38612;BME280;24368;52.156;20.788;2023-03-22T19:32:14;99877.13;;;10.16;100.00
38612;BME280;24368;52.156;20.788;2023-03-22T19:37:16;99875.31;;;10.17;100.00
38612;BME280;24368;52.156;20.788;2023-03-22T19:42:18;99872.34;;;10.17;100.00
38612;BME280;24368;52.156;20.788;2023-03-22T19:47:20;99870.02;;;10.16;100.00
38612;BME280;24368;52.156;20.788;2023-03-22T19:52:22;99868.14;;;10.10;100.00
38612;BME280;24368;52.156;20.788;2023-03-22T19:57:33;99867.61;;;10.06;100.00
38612;BME280;24368;52.156;20.788;2023-03-22T20:02:36;99869.50;;;10.07;100.00
38612;BME280;24368;52.156;20.788;2023-03-22T20:07:38;99869.66;;;10.05;100.00
38612;BME280;24368;52.156;20.788;2023-03-22T20:12:40;99868.30;;;10.00;100.00
38612;BME280;24368;52.156;20.788;2023-03-22T20:17:42;99870.42;;;9.93;100.00
38612;BME280;24368;52.156;20.788;2023-03-22T20:22:44;99868.40;;;9.88;100.00
38612;BME280;24368;52.156;20.788;2023-03-22T20:27:50;99859.84;;;9.85;100.00
38612;BME280;24368;52.156;20.788;2023-03-22T20:32:54;99861.13;;;9.83;100.00
38612;BME280;24368;52.156;20.788;2023-03-22T20:37:57;99858.78;;;9.73;100.00
38612;BME280;24368;52.156;20.788;2023-03-22T20:42:59;99849.86;;;9.68;100.00
38612;BME280;24368;52.156;20.788;2023-03-22T20:48:01;99843.63;;;9.65;100.00
38612;BME280;24368;52.156;20.788;2023-03-22T20:53:03;99844.77;;;9.63;100.00
38612;BME280;24368;52.156;20.788;2023-03-22T20:58:06;99840.45;;;9.57;100.00
38612;BME280;24368;52.156;20.788;2023-03-22T21:03:07;99836.95;;;9.48;100.00
38612;BME280;24368;52.156;20.788;2023-03-22T21:08:09;99833.63;;;9.41;100.00
38612;BME280;24368;52.156;20.788;2023-03-22T21:13:11;99833.16;;;9.39;100.00
38612;BME280;24368;52.156;20.788;2023-03-22T21:18:13;99833.20;;;9.34;100.00
38612;BME280;24368;52.156;20.788;2023-03-22T21:23:20;99834.52;;;9.28;100.00
38612;BME280;24368;52.156;20.788;2023-03-22T21:28:22;99830.41;;;9.22;100.00
38612;BME280;24368;52.156;20.788;2023-03-22T21:33:26;99826.39;;;9.21;100.00
38612;BME280;24368;52.156;20.788;2023-03-22T21:38:28;99833.31;;;9.16;100.00
38612;BME280;24368;52.156;20.788;2023-03-22T21:43:36;99829.66;;;9.08;100.00
38612;BME280;24368;52.156;20.788;2023-03-22T21:48:41;99826.95;;;9.04;100.00
38612;BME280;24368;52.156;20.788;2023-03-22T21:53:45;99825.25;;;8.98;100.00
38612;BME280;24368;52.156;20.788;2023-03-22T21:58:47;99820.37;;;8.96;100.00
38612;BME280;24368;52.156;20.788;2023-03-22T22:03:48;99820.92;;;8.94;100.00
38612;BME280;24368;52.156;20.788;2023-03-22T22:08:51;99822.86;;;8.90;100.00
38612;BME280;24368;52.156;20.788;2023-03-22T22:13:53;99818.83;;;8.87;100.00
38612;BME280;24368;52.156;20.788;2023-03-22T22:18:55;99815.15;;;8.85;100.00
38612;BME280;24368;52.156;20.788;2023-03-22T22:23:56;99814.34;;;8.85;100.00
38612;BME280;24368;52.156;20.788;2023-03-22T22:28:59;99808.21;;;8.81;100.00
38612;BME280;24368;52.156;20.788;2023-03-22T22:34:03;99807.95;;;8.80;100.00
38612;BME280;24368;52.156;20.788;2023-03-22T22:39:04;99806.32;;;8.77;100.00
38612;BME280;24368;52.156;20.788;2023-03-22T22:44:07;99799.44;;;8.76;100.00
38612;BME280;24368;52.156;20.788;2023-03-22T22:49:10;99798.29;;;8.75;100.00
38612;BME280;24368;52.156;20.788;2023-03-22T22:54:12;99790.98;;;8.69;100.00
38612;BME280;24368;52.156;20.788;2023-03-22T22:59:13;99785.66;;;8.64;100.00
38612;BME280;24368;52.156;20.788;2023-03-22T23:04:16;99781.95;;;8.65;100.00
38612;BME280;24368;52.156;20.788;2023-03-22T23:09:19;99781.12;;;8.64;100.00
38612;BME280;24368;52.156;20.788;2023-03-22T23:14:21;99774.10;;;8.61;100.00
38612;BME280;24368;52.156;20.788;2023-03-22T23:19:31;99772.98;;;8.58;100.00
38612;BME280;24368;52.156;20.788;2023-03-22T23:24:39;99769.22;;;8.62;100.00
38612;BME280;24368;52.156;20.788;2023-03-22T23:29:44;99770.81;;;8.65;100.00
38612;BME280;24368;52.156;20.788;2023-03-22T23:34:46;99763.44;;;8.64;100.00
38612;BME280;24368;52.156;20.788;2023-03-22T23:39:49;99759.01;;;8.66;100.00
38612;BME280;24368;52.156;20.788;2023-03-22T23:44:51;99755.60;;;8.68;100.00
38612;BME280;24368;52.156;20.788;2023-03-22T23:49:53;99756.11;;;8.73;100.00
38612;BME280;24368;52.156;20.788;2023-03-22T23:54:55;99749.14;;;8.74;100.00
38612;BME280;24368;52.156;20.788;2023-03-22T23:59:56;99744.34;;;8.77;100.00
